sensor_id;sensor_type;location;lat;lon;timestamp;P1;durP1;ratioP1;P2;durP2;ratioP2
51006;SDS011;37034;47.886;-3.904;2022-08-04T00:05:17;4.28;;;2.05;;
51006;SDS011;37034;47.886;-3.904;2022-08-04T00:08:00;4.45;;;1.83;;
51006;SDS011;37034;47.886;-3.904;2022-08-04T00:10:51;4.45;;;1.90;;
51006;SDS011;37034;47.886;-3.904;2022-08-04T00:13:23;4.22;;;1.63;;
51006;SDS011;37034;47.886;-3.904;2022-08-04T00:15:51;3.35;;;1.63;;
51006;SDS011;37034;47.886;-3.904;2022-08-04T00:18:19;3.35;;;1.30;;
51006;SDS011;37034;47.886;-3.904;2022-08-04T00:20:50;4.82;;;1.92;;
51006;SDS011;37034;47.886;-3.904;2022-08-04T00:23:24;3.42;;;1.55;;
51006;SDS011;37034;47.886;-3.904;2022-08-04T00:25:52;4.28;;;1.73;;
51006;SDS011;37034;47.886;-3.904;2022-08-04T00:28:18;4.35;;;1.58;;
51006;SDS011;37034;47.886;-3.904;2022-08-04T00:30:45;7.18;;;1.70;;
51006;SDS011;37034;47.886;-3.904;2022-08-04T00:33:12;5.32;;;1.70;;
51006;SDS011;37034;47.886;-3.904;2022-08-04T00:35:42;5.50;;;1.92;;
51006;SDS011;37034;47.886;-3.904;2022-08-04T00:38:10;6.18;;;1.95;;
51006;SDS011;37034;47.886;-3.904;2022-08-04T00:43:32;7.15;;;2.25;;
51006;SDS011;37034;47.886;-3.904;2022-08-04T00:46:03;3.53;;;1.83;;
51006;SDS011;37034;47.886;-3.904;2022-08-04T01:12:39;6.93;;;2.42;;
51006;SDS011;37034;47.886;-3.904;2022-08-04T01:18:28;6.20;;;2.33;;
51006;SDS011;37034;47.886;-3.904;2022-08-04T01:26:54;7.45;;;1.90;;
51006;SDS011;37034;47.886;-3.904;2022-08-04T01:29:53;11.75;;;2.20;;
51006;SDS011;37034;47.886;-3.904;2022-08-04T01:32:33;9.27;;;2.47;;
51006;SDS011;37034;47.886;-3.904;2022-08-04T01:38:17;4.47;;;1.80;;
51006;SDS011;37034;47.886;-3.904;2022-08-04T01:40:53;7.63;;;2.20;;
51006;SDS011;37034;47.886;-3.904;2022-08-04T01:43:23;6.80;;;2.22;;
51006;SDS011;37034;47.886;-3.904;2022-08-04T01:46:02;7.05;;;2.08;;
51006;SDS011;37034;47.886;-3.904;2022-08-04T01:48:29;8.55;;;2.33;;
51006;SDS011;37034;47.886;-3.904;2022-08-04T01:53:23;7.32;;;2.20;;
51006;SDS011;37034;47.886;-3.904;2022-08-04T01:55:54;9.45;;;2.17;;
51006;SDS011;37034;47.886;-3.904;2022-08-04T01:58:22;3.92;;;1.63;;
51006;SDS011;37034;47.886;-3.904;2022-08-04T02:00:54;9.68;;;2.97;;
51006;SDS011;37034;47.886;-3.904;2022-08-04T02:03:22;6.55;;;2.38;;
51006;SDS011;37034;47.886;-3.904;2022-08-04T02:05:48;7.43;;;2.42;;
51006;SDS011;37034;47.886;-3.904;2022-08-04T02:08:20;8.13;;;2.10;;
51006;SDS011;37034;47.886;-3.904;2022-08-04T02:11:15;6.65;;;2.03;;
51006;SDS011;37034;47.886;-3.904;2022-08-04T02:17:14;6.32;;;1.65;;
51006;SDS011;37034;47.886;-3.904;2022-08-04T02:20:00;7.38;;;2.10;;
51006;SDS011;37034;47.886;-3.904;2022-08-04T02:22:30;6.20;;;1.80;;
51006;SDS011;37034;47.886;-3.904;2022-08-04T02:25:02;6.25;;;2.00;;
51006;SDS011;37034;47.886;-3.904;2022-08-04T02:27:33;7.63;;;1.90;;
51006;SDS011;37034;47.886;-3.904;2022-08-04T02:30:09;6.47;;;2.20;;
51006;SDS011;37034;47.886;-3.904;2022-08-04T02:32:35;6.25;;;2.25;;
51006;SDS011;37034;47.886;-3.904;2022-08-04T02:35:06;6.50;;;2.15;;
51006;SDS011;37034;47.886;-3.904;2022-08-04T02:37:36;5.50;;;2.13;;
51006;SDS011;37034;47.886;-3.904;2022-08-04T02:40:05;9.73;;;2.70;;
51006;SDS011;37034;47.886;-3.904;2022-08-04T02:42:31;6.25;;;1.98;;
51006;SDS011;37034;47.886;-3.904;2022-08-04T02:44:58;7.22;;;1.95;;
51006;SDS011;37034;47.886;-3.904;2022-08-04T02:47:25;6.47;;;1.67;;
51006;SDS011;37034;47.886;-3.904;2022-08-04T02:49:52;5.25;;;1.80;;
51006;SDS011;37034;47.886;-3.904;2022-08-04T02:52:20;5.93;;;1.75;;
51006;SDS011;37034;47.886;-3.904;2022-08-04T02:54:52;5.93;;;1.80;;
51006;SDS011;37034;47.886;-3.904;2022-08-04T02:57:22;6.07;;;1.95;;
51006;SDS011;37034;47.886;-3.904;2022-08-04T03:02:33;6.25;;;1.80;;
51006;SDS011;37034;47.886;-3.904;2022-08-04T03:05:09;7.05;;;2.05;;
51006;SDS011;37034;47.886;-3.904;2022-08-04T03:16:12;5.55;;;1.75;;
51006;SDS011;37034;47.886;-3.904;2022-08-04T03:40:36;5.75;;;2.22;;
51006;SDS011;37034;47.886;-3.904;2022-08-04T03:43:28;6.07;;;2.63;;
51006;SDS011;37034;47.886;-3.904;2022-08-04T03:57:45;9.05;;;2.50;;
51006;SDS011;37034;47.886;-3.904;2022-08-04T04:00:21;14.32;;;2.95;;
51006;SDS011;37034;47.886;-3.904;2022-08-04T04:05:53;11.70;;;3.30;;
51006;SDS011;37034;47.886;-3.904;2022-08-04T04:11:19;9.68;;;3.30;;
51006;SDS011;37034;47.886;-3.904;2022-08-04T04:14:03;5.78;;;2.65;;
51006;SDS011;37034;47.886;-3.904;2022-08-04T04:30:07;9.60;;;2.50;;
51006;SDS011;37034;47.886;-3.904;2022-08-04T04:35:36;11.27;;;3.55;;
51006;SDS011;37034;47.886;-3.904;2022-08-04T04:47:17;7.65;;;2.72;;
51006;SDS011;37034;47.886;-3.904;2022-08-04T04:52:41;12.95;;;3.25;;
51006;SDS011;37034;47.886;-3.904;2022-08-04T04:57:45;13.57;;;3.20;;
51006;SDS011;37034;47.886;-3.904;2022-08-04T05:00:14;9.98;;;2.97;;
51006;SDS011;37034;47.886;-3.904;2022-08-04T05:13:56;9.00;;;2.95;;
51006;SDS011;37034;47.886;-3.904;2022-08-04T05:16:32;8.15;;;2.83;;
51006;SDS011;37034;47.886;-3.904;2022-08-04T05:22:23;10.80;;;2.47;;
51006;SDS011;37034;47.886;-3.904;2022-08-04T05:25:02;8.73;;;3.00;;
51006;SDS011;37034;47.886;-3.904;2022-08-04T05:27:50;7.65;;;2.72;;
51006;SDS011;37034;47.886;-3.904;2022-08-04T05:30:26;8.23;;;2.80;;
51006;SDS011;37034;47.886;-3.904;2022-08-04T05:32:56;6.60;;;2.85;;
51006;SDS011;37034;47.886;-3.904;2022-08-04T05:35:32;9.50;;;3.10;;
51006;SDS011;37034;47.886;-3.904;2022-08-04T05:38:01;9.05;;;3.03;;
51006;SDS011;37034;47.886;-3.904;2022-08-04T05:40:28;13.70;;;3.80;;
51006;SDS011;37034;47.886;-3.904;2022-08-04T05:42:55;14.82;;;3.50;;
51006;SDS011;37034;47.886;-3.904;2022-08-04T05:45:21;10.15;;;3.38;;
51006;SDS011;37034;47.886;-3.904;2022-08-04T05:47:48;12.65;;;3.60;;
51006;SDS011;37034;47.886;-3.904;2022-08-04T05:50:16;13.77;;;4.03;;
51006;SDS011;37034;47.886;-3.904;2022-08-04T05:52:42;9.07;;;3.22;;
51006;SDS011;37034;47.886;-3.904;2022-08-04T05:57:37;10.02;;;3.28;;
51006;SDS011;37034;47.886;-3.904;2022-08-04T06:00:07;7.60;;;3.28;;
51006;SDS011;37034;47.886;-3.904;2022-08-04T06:02:34;11.18;;;3.22;;
51006;SDS011;37034;47.886;-3.904;2022-08-04T06:05:01;8.10;;;3.00;;
51006;SDS011;37034;47.886;-3.904;2022-08-04T06:07:31;9.85;;;3.47;;
51006;SDS011;37034;47.886;-3.904;2022-08-04T06:09:57;10.10;;;3.20;;
51006;SDS011;37034;47.886;-3.904;2022-08-04T06:12:26;10.98;;;3.40;;
51006;SDS011;37034;47.886;-3.904;2022-08-04T06:15:00;16.98;;;4.30;;
51006;SDS011;37034;47.886;-3.904;2022-08-04T06:17:37;14.20;;;3.63;;
51006;SDS011;37034;47.886;-3.904;2022-08-04T06:20:04;11.60;;;3.05;;
51006;SDS011;37034;47.886;-3.904;2022-08-04T06:22:33;7.80;;;2.72;;
51006;SDS011;37034;47.886;-3.904;2022-08-04T06:25:03;10.43;;;3.00;;
51006;SDS011;37034;47.886;-3.904;2022-08-04T06:27:30;9.30;;;2.70;;
51006;SDS011;37034;47.886;-3.904;2022-08-04T06:29:57;9.07;;;2.55;;
51006;SDS011;37034;47.886;-3.904;2022-08-04T06:32:25;11.07;;;2.90;;
51006;SDS011;37034;47.886;-3.904;2022-08-04T06:34:59;10.32;;;2.42;;
51006;SDS011;37034;47.886;-3.904;2022-08-04T06:37:26;12.40;;;2.47;;
51006;SDS011;37034;47.886;-3.904;2022-08-04T06:39:53;9.20;;;2.20;;
51006;SDS011;37034;47.886;-3.904;2022-08-04T06:42:20;10.00;;;2.20;;
51006;SDS011;37034;47.886;-3.904;2022-08-04T06:44:50;9.77;;;2.90;;
51006;SDS011;37034;47.886;-3.904;2022-08-04T06:47:20;13.52;;;3.20;;
51006;SDS011;37034;47.886;-3.904;2022-08-04T06:52:15;8.35;;;1.70;;
51006;SDS011;37034;47.886;-3.904;2022-08-04T06:55:00;16.73;;;2.45;;
51006;SDS011;37034;47.886;-3.904;2022-08-04T06:57:27;14.30;;;2.70;;
51006;SDS011;37034;47.886;-3.904;2022-08-04T06:59:58;9.70;;;2.05;;
51006;SDS011;37034;47.886;-3.904;2022-08-04T07:02:27;11.10;;;2.20;;
51006;SDS011;37034;47.886;-3.904;2022-08-04T07:04:57;12.88;;;2.78;;
51006;SDS011;37034;47.886;-3.904;2022-08-04T07:07:23;12.13;;;2.28;;
51006;SDS011;37034;47.886;-3.904;2022-08-04T07:09:49;12.15;;;1.80;;
51006;SDS011;37034;47.886;-3.904;2022-08-04T07:12:16;8.43;;;2.03;;
51006;SDS011;37034;47.886;-3.904;2022-08-04T07:14:46;10.10;;;2.05;;
51006;SDS011;37034;47.886;-3.904;2022-08-04T07:17:14;9.93;;;2.45;;
51006;SDS011;37034;47.886;-3.904;2022-08-04T07:19:41;9.52;;;2.10;;
51006;SDS011;37034;47.886;-3.904;2022-08-04T07:22:08;9.43;;;1.90;;
51006;SDS011;37034;47.886;-3.904;2022-08-04T07:24:35;18.02;;;2.90;;
51006;SDS011;37034;47.886;-3.904;2022-08-04T07:27:03;10.70;;;2.20;;
51006;SDS011;37034;47.886;-3.904;2022-08-04T07:29:30;10.07;;;2.08;;
51006;SDS011;37034;47.886;-3.904;2022-08-04T07:31:57;7.53;;;1.70;;
51006;SDS011;37034;47.886;-3.904;2022-08-04T07:34:24;12.93;;;2.00;;
51006;SDS011;37034;47.886;-3.904;2022-08-04T07:36:51;9.40;;;2.60;;
51006;SDS011;37034;47.886;-3.904;2022-08-04T07:39:19;9.07;;;2.05;;
51006;SDS011;37034;47.886;-3.904;2022-08-04T07:41:45;9.68;;;1.75;;
51006;SDS011;37034;47.886;-3.904;2022-08-04T07:44:12;8.95;;;1.65;;
51006;SDS011;37034;47.886;-3.904;2022-08-04T07:46:39;10.30;;;2.78;;
51006;SDS011;37034;47.886;-3.904;2022-08-04T07:49:06;12.23;;;2.30;;
51006;SDS011;37034;47.886;-3.904;2022-08-04T07:51:32;12.48;;;1.67;;
51006;SDS011;37034;47.886;-3.904;2022-08-04T07:54:00;11.75;;;2.17;;
51006;SDS011;37034;47.886;-3.904;2022-08-04T07:56:29;7.13;;;1.60;;
51006;SDS011;37034;47.886;-3.904;2022-08-04T07:58:59;8.20;;;1.75;;
51006;SDS011;37034;47.886;-3.904;2022-08-04T08:03:52;12.70;;;1.70;;
51006;SDS011;37034;47.886;-3.904;2022-08-04T08:06:19;16.52;;;2.50;;
51006;SDS011;37034;47.886;-3.904;2022-08-04T08:11:11;10.95;;;2.03;;
51006;SDS011;37034;47.886;-3.904;2022-08-04T08:13:36;9.13;;;1.70;;
51006;SDS011;37034;47.886;-3.904;2022-08-04T08:16:04;11.77;;;2.03;;
51006;SDS011;37034;47.886;-3.904;2022-08-04T08:18:30;10.95;;;1.70;;
51006;SDS011;37034;47.886;-3.904;2022-08-04T08:20:56;16.15;;;2.03;;
51006;SDS011;37034;47.886;-3.904;2022-08-04T08:23:22;15.30;;;2.15;;
51006;SDS011;37034;47.886;-3.904;2022-08-04T08:25:49;10.95;;;1.95;;
51006;SDS011;37034;47.886;-3.904;2022-08-04T08:28:15;12.95;;;2.17;;
51006;SDS011;37034;47.886;-3.904;2022-08-04T08:30:41;10.40;;;2.28;;
51006;SDS011;37034;47.886;-3.904;2022-08-04T08:33:08;10.50;;;1.85;;
51006;SDS011;37034;47.886;-3.904;2022-08-04T08:41:29;12.63;;;1.75;;
51006;SDS011;37034;47.886;-3.904;2022-08-04T08:54:55;5.82;;;1.30;;
51006;SDS011;37034;47.886;-3.904;2022-08-04T08:57:39;9.02;;;1.50;;
51006;SDS011;37034;47.886;-3.904;2022-08-04T09:00:17;6.57;;;1.48;;
51006;SDS011;37034;47.886;-3.904;2022-08-04T09:11:05;4.70;;;1.13;;
51006;SDS011;37034;47.886;-3.904;2022-08-04T09:13:43;7.18;;;1.27;;
51006;SDS011;37034;47.886;-3.904;2022-08-04T09:16:18;6.78;;;1.45;;
51006;SDS011;37034;47.886;-3.904;2022-08-04T09:21:35;8.68;;;1.55;;
51006;SDS011;37034;47.886;-3.904;2022-08-04T09:27:00;7.20;;;1.10;;
51006;SDS011;37034;47.886;-3.904;2022-08-04T09:29:35;4.90;;;1.10;;
51006;SDS011;37034;47.886;-3.904;2022-08-04T09:40:57;8.13;;;1.30;;
51006;SDS011;37034;47.886;-3.904;2022-08-04T09:46:38;5.82;;;1.35;;
51006;SDS011;37034;47.886;-3.904;2022-08-04T09:49:22;5.53;;;1.42;;
51006;SDS011;37034;47.886;-3.904;2022-08-04T09:52:33;7.35;;;1.23;;
51006;SDS011;37034;47.886;-3.904;2022-08-04T09:57:58;4.82;;;1.27;;
51006;SDS011;37034;47.886;-3.904;2022-08-04T10:00:35;9.07;;;1.40;;
51006;SDS011;37034;47.886;-3.904;2022-08-04T10:03:09;8.18;;;1.27;;
51006;SDS011;37034;47.886;-3.904;2022-08-04T10:09:00;8.48;;;1.80;;
51006;SDS011;37034;47.886;-3.904;2022-08-04T10:12:02;6.93;;;1.40;;
51006;SDS011;37034;47.886;-3.904;2022-08-04T10:14:52;7.80;;;1.30;;
51006;SDS011;37034;47.886;-3.904;2022-08-04T10:28:16;6.97;;;1.55;;
51006;SDS011;37034;47.886;-3.904;2022-08-04T10:30:49;6.53;;;1.75;;
51006;SDS011;37034;47.886;-3.904;2022-08-04T10:33:35;5.20;;;1.60;;
51006;SDS011;37034;47.886;-3.904;2022-08-04T10:36:08;7.53;;;1.52;;
51006;SDS011;37034;47.886;-3.904;2022-08-04T10:41:11;5.77;;;1.60;;
51006;SDS011;37034;47.886;-3.904;2022-08-04T10:46:28;4.30;;;1.35;;
51006;SDS011;37034;47.886;-3.904;2022-08-04T10:49:03;8.82;;;1.90;;
51006;SDS011;37034;47.886;-3.904;2022-08-04T10:51:54;7.60;;;1.90;;
51006;SDS011;37034;47.886;-3.904;2022-08-04T10:54:38;3.97;;;1.38;;
51006;SDS011;37034;47.886;-3.904;2022-08-04T11:07:44;6.07;;;1.95;;
51006;SDS011;37034;47.886;-3.904;2022-08-04T11:10:15;8.40;;;1.80;;
51006;SDS011;37034;47.886;-3.904;2022-08-04T11:12:45;4.30;;;1.27;;
51006;SDS011;37034;47.886;-3.904;2022-08-04T11:15:19;8.30;;;1.88;;
51006;SDS011;37034;47.886;-3.904;2022-08-04T11:17:58;5.07;;;1.35;;
51006;SDS011;37034;47.886;-3.904;2022-08-04T11:23:22;4.93;;;1.40;;
51006;SDS011;37034;47.886;-3.904;2022-08-04T11:25:58;7.95;;;2.47;;
51006;SDS011;37034;47.886;-3.904;2022-08-04T11:34:00;5.55;;;1.83;;
51006;SDS011;37034;47.886;-3.904;2022-08-04T11:36:38;7.88;;;1.65;;
51006;SDS011;37034;47.886;-3.904;2022-08-04T11:39:32;8.75;;;1.83;;
51006;SDS011;37034;47.886;-3.904;2022-08-04T11:45:00;5.18;;;2.03;;
51006;SDS011;37034;47.886;-3.904;2022-08-04T11:47:50;7.07;;;1.40;;
51006;SDS011;37034;47.886;-3.904;2022-08-04T11:50:25;6.85;;;1.58;;
51006;SDS011;37034;47.886;-3.904;2022-08-04T11:52:53;7.40;;;2.95;;
51006;SDS011;37034;47.886;-3.904;2022-08-04T11:55:22;6.78;;;2.35;;
51006;SDS011;37034;47.886;-3.904;2022-08-04T11:57:51;4.70;;;1.30;;
51006;SDS011;37034;47.886;-3.904;2022-08-04T12:00:18;6.82;;;1.30;;
51006;SDS011;37034;47.886;-3.904;2022-08-04T12:02:57;4.68;;;1.35;;
51006;SDS011;37034;47.886;-3.904;2022-08-04T12:05:35;5.85;;;1.83;;
51006;SDS011;37034;47.886;-3.904;2022-08-04T12:17:04;5.28;;;1.38;;
51006;SDS011;37034;47.886;-3.904;2022-08-04T12:22:15;4.03;;;1.23;;
51006;SDS011;37034;47.886;-3.904;2022-08-04T12:24:51;3.83;;;1.40;;
51006;SDS011;37034;47.886;-3.904;2022-08-04T12:27:41;5.85;;;1.52;;
51006;SDS011;37034;47.886;-3.904;2022-08-04T12:30:17;3.17;;;1.10;;
51006;SDS011;37034;47.886;-3.904;2022-08-04T12:32:47;5.90;;;1.30;;
51006;SDS011;37034;47.886;-3.904;2022-08-04T12:38:05;8.23;;;1.25;;
51006;SDS011;37034;47.886;-3.904;2022-08-04T12:43:16;6.75;;;1.55;;
51006;SDS011;37034;47.886;-3.904;2022-08-04T12:45:53;3.50;;;1.15;;
51006;SDS011;37034;47.886;-3.904;2022-08-04T12:48:21;3.72;;;1.20;;
51006;SDS011;37034;47.886;-3.904;2022-08-04T12:50:54;5.43;;;1.55;;
51006;SDS011;37034;47.886;-3.904;2022-08-04T12:53:42;4.13;;;1.15;;
51006;SDS011;37034;47.886;-3.904;2022-08-04T12:58:45;6.55;;;1.63;;
51006;SDS011;37034;47.886;-3.904;2022-08-04T13:01:16;6.50;;;1.60;;
51006;SDS011;37034;47.886;-3.904;2022-08-04T13:04:00;6.75;;;1.63;;
51006;SDS011;37034;47.886;-3.904;2022-08-04T13:06:36;4.70;;;1.58;;
51006;SDS011;37034;47.886;-3.904;2022-08-04T13:09:09;4.38;;;1.25;;
51006;SDS011;37034;47.886;-3.904;2022-08-04T13:11:40;4.50;;;1.45;;
51006;SDS011;37034;47.886;-3.904;2022-08-04T13:14:09;4.72;;;1.40;;
51006;SDS011;37034;47.886;-3.904;2022-08-04T13:16:37;4.30;;;1.40;;
51006;SDS011;37034;47.886;-3.904;2022-08-04T13:21:31;6.28;;;1.38;;
51006;SDS011;37034;47.886;-3.904;2022-08-04T13:24:03;4.15;;;1.40;;
51006;SDS011;37034;47.886;-3.904;2022-08-04T13:26:31;4.30;;;1.42;;
51006;SDS011;37034;47.886;-3.904;2022-08-04T13:29:00;4.93;;;1.20;;
51006;SDS011;37034;47.886;-3.904;2022-08-04T13:31:28;4.85;;;1.30;;
51006;SDS011;37034;47.886;-3.904;2022-08-04T13:34:01;3.20;;;1.15;;
51006;SDS011;37034;47.886;-3.904;2022-08-04T13:36:32;3.63;;;1.10;;
51006;SDS011;37034;47.886;-3.904;2022-08-04T13:39:21;4.55;;;1.30;;
51006;SDS011;37034;47.886;-3.904;2022-08-04T13:41:55;5.22;;;1.52;;
51006;SDS011;37034;47.886;-3.904;2022-08-04T13:44:31;4.45;;;1.27;;
51006;SDS011;37034;47.886;-3.904;2022-08-04T13:47:06;5.57;;;1.10;;
51006;SDS011;37034;47.886;-3.904;2022-08-04T13:49:34;5.63;;;1.20;;
51006;SDS011;37034;47.886;-3.904;2022-08-04T13:54:37;2.55;;;0.95;;
51006;SDS011;37034;47.886;-3.904;2022-08-04T13:57:07;5.00;;;1.33;;
51006;SDS011;37034;47.886;-3.904;2022-08-04T13:59:39;3.65;;;1.20;;
51006;SDS011;37034;47.886;-3.904;2022-08-04T14:02:13;5.72;;;1.23;;
51006;SDS011;37034;47.886;-3.904;2022-08-04T14:04:53;8.82;;;1.65;;
51006;SDS011;37034;47.886;-3.904;2022-08-04T14:07:21;7.63;;;2.33;;
51006;SDS011;37034;47.886;-3.904;2022-08-04T14:09:50;6.25;;;1.20;;
51006;SDS011;37034;47.886;-3.904;2022-08-04T14:12:16;9.63;;;1.77;;
51006;SDS011;37034;47.886;-3.904;2022-08-04T14:14:44;9.25;;;1.40;;
51006;SDS011;37034;47.886;-3.904;2022-08-04T14:17:16;4.97;;;1.45;;
51006;SDS011;37034;47.886;-3.904;2022-08-04T14:27:40;5.35;;;1.30;;
51006;SDS011;37034;47.886;-3.904;2022-08-04T14:30:51;6.80;;;1.90;;
51006;SDS011;37034;47.886;-3.904;2022-08-04T14:33:01;6.20;;;1.30;;
51006;SDS011;37034;47.886;-3.904;2022-08-04T14:35:34;5.25;;;1.60;;
51006;SDS011;37034;47.886;-3.904;2022-08-04T14:38:06;8.52;;;1.83;;
51006;SDS011;37034;47.886;-3.904;2022-08-04T14:40:34;3.78;;;1.27;;
51006;SDS011;37034;47.886;-3.904;2022-08-04T14:43:02;7.97;;;1.65;;
51006;SDS011;37034;47.886;-3.904;2022-08-04T14:45:29;5.85;;;1.30;;
51006;SDS011;37034;47.886;-3.904;2022-08-04T14:48:00;4.45;;;1.20;;
51006;SDS011;37034;47.886;-3.904;2022-08-04T14:53:05;8.02;;;1.20;;
51006;SDS011;37034;47.886;-3.904;2022-08-04T14:55:33;6.88;;;1.08;;
51006;SDS011;37034;47.886;-3.904;2022-08-04T14:57:59;3.88;;;1.23;;
51006;SDS011;37034;47.886;-3.904;2022-08-04T15:02:56;7.03;;;1.48;;
51006;SDS011;37034;47.886;-3.904;2022-08-04T15:05:26;4.72;;;1.35;;
51006;SDS011;37034;47.886;-3.904;2022-08-04T15:07:54;4.10;;;1.35;;
51006;SDS011;37034;47.886;-3.904;2022-08-04T15:10:20;11.55;;;1.25;;
51006;SDS011;37034;47.886;-3.904;2022-08-04T15:15:12;3.85;;;1.30;;
51006;SDS011;37034;47.886;-3.904;2022-08-04T15:20:03;6.93;;;1.10;;
51006;SDS011;37034;47.886;-3.904;2022-08-04T15:22:31;10.30;;;1.30;;
51006;SDS011;37034;47.886;-3.904;2022-08-04T15:27:26;5.05;;;1.35;;
51006;SDS011;37034;47.886;-3.904;2022-08-04T15:29:57;6.03;;;1.20;;
51006;SDS011;37034;47.886;-3.904;2022-08-04T15:32:27;2.60;;;1.00;;
51006;SDS011;37034;47.886;-3.904;2022-08-04T15:35:00;2.72;;;1.25;;
51006;SDS011;37034;47.886;-3.904;2022-08-04T15:37:27;4.72;;;1.33;;
51006;SDS011;37034;47.886;-3.904;2022-08-04T15:40:06;6.35;;;1.20;;
51006;SDS011;37034;47.886;-3.904;2022-08-04T15:45:24;5.97;;;1.10;;
51006;SDS011;37034;47.886;-3.904;2022-08-04T15:50:27;3.75;;;1.10;;
51006;SDS011;37034;47.886;-3.904;2022-08-04T15:55:30;6.38;;;1.17;;
51006;SDS011;37034;47.886;-3.904;2022-08-04T15:57:56;7.00;;;1.55;;
51006;SDS011;37034;47.886;-3.904;2022-08-04T16:00:26;3.97;;;1.13;;
51006;SDS011;37034;47.886;-3.904;2022-08-04T16:02:52;5.88;;;1.20;;
51006;SDS011;37034;47.886;-3.904;2022-08-04T16:12:57;9.65;;;1.20;;
51006;SDS011;37034;47.886;-3.904;2022-08-04T16:20:49;4.80;;;1.05;;
51006;SDS011;37034;47.886;-3.904;2022-08-04T16:26:02;4.30;;;1.10;;
51006;SDS011;37034;47.886;-3.904;2022-08-04T16:31:01;2.97;;;1.10;;
51006;SDS011;37034;47.886;-3.904;2022-08-04T16:33:28;4.88;;;1.05;;
51006;SDS011;37034;47.886;-3.904;2022-08-04T16:35:59;4.93;;;1.20;;
51006;SDS011;37034;47.886;-3.904;2022-08-04T16:38:25;5.97;;;1.15;;
51006;SDS011;37034;47.886;-3.904;2022-08-04T16:40:57;3.97;;;1.10;;
51006;SDS011;37034;47.886;-3.904;2022-08-04T16:43:28;5.72;;;1.10;;
51006;SDS011;37034;47.886;-3.904;2022-08-04T16:45:59;5.35;;;1.40;;
51006;SDS011;37034;47.886;-3.904;2022-08-04T16:48:30;5.72;;;1.08;;
51006;SDS011;37034;47.886;-3.904;2022-08-04T16:51:01;6.45;;;1.13;;
51006;SDS011;37034;47.886;-3.904;2022-08-04T16:53:32;5.68;;;1.50;;
51006;SDS011;37034;47.886;-3.904;2022-08-04T16:56:07;3.95;;;1.20;;
51006;SDS011;37034;47.886;-3.904;2022-08-04T16:58:38;8.68;;;1.67;;
51006;SDS011;37034;47.886;-3.904;2022-08-04T17:01:14;4.57;;;1.00;;
51006;SDS011;37034;47.886;-3.904;2022-08-04T17:03:48;3.70;;;0.95;;
51006;SDS011;37034;47.886;-3.904;2022-08-04T17:06:15;4.82;;;1.42;;
51006;SDS011;37034;47.886;-3.904;2022-08-04T17:08:41;3.53;;;0.82;;
51006;SDS011;37034;47.886;-3.904;2022-08-04T17:11:08;3.75;;;0.90;;
51006;SDS011;37034;47.886;-3.904;2022-08-04T17:16:05;6.55;;;1.13;;
51006;SDS011;37034;47.886;-3.904;2022-08-04T17:18:38;3.58;;;0.95;;
51006;SDS011;37034;47.886;-3.904;2022-08-04T17:21:10;8.63;;;1.25;;
51006;SDS011;37034;47.886;-3.904;2022-08-04T17:23:41;5.05;;;1.10;;
51006;SDS011;37034;47.886;-3.904;2022-08-04T17:26:12;6.47;;;1.10;;
51006;SDS011;37034;47.886;-3.904;2022-08-04T17:28:47;4.38;;;1.13;;
51006;SDS011;37034;47.886;-3.904;2022-08-04T17:31:14;6.57;;;1.20;;
51006;SDS011;37034;47.886;-3.904;2022-08-04T17:33:45;2.88;;;0.82;;
51006;SDS011;37034;47.886;-3.904;2022-08-04T17:36:13;2.40;;;0.80;;
51006;SDS011;37034;47.886;-3.904;2022-08-04T17:38:44;4.72;;;1.00;;
51006;SDS011;37034;47.886;-3.904;2022-08-04T17:41:12;4.93;;;1.15;;
51006;SDS011;37034;47.886;-3.904;2022-08-04T17:48:53;9.48;;;1.40;;
51006;SDS011;37034;47.886;-3.904;2022-08-04T17:51:26;5.38;;;1.00;;
51006;SDS011;37034;47.886;-3.904;2022-08-04T17:53:57;4.97;;;1.00;;
51006;SDS011;37034;47.886;-3.904;2022-08-04T17:56:27;8.40;;;1.10;;
51006;SDS011;37034;47.886;-3.904;2022-08-04T18:01:41;12.77;;;1.52;;
51006;SDS011;37034;47.886;-3.904;2022-08-04T18:09:32;5.65;;;1.20;;
51006;SDS011;37034;47.886;-3.904;2022-08-04T18:17:36;6.68;;;1.38;;
51006;SDS011;37034;47.886;-3.904;2022-08-04T18:20:04;6.20;;;1.23;;
51006;SDS011;37034;47.886;-3.904;2022-08-04T18:22:32;6.65;;;1.30;;
51006;SDS011;37034;47.886;-3.904;2022-08-04T18:24:58;5.85;;;1.00;;
51006;SDS011;37034;47.886;-3.904;2022-08-04T18:27:25;5.45;;;1.20;;
51006;SDS011;37034;47.886;-3.904;2022-08-04T18:29:52;7.45;;;1.20;;
51006;SDS011;37034;47.886;-3.904;2022-08-04T18:32:19;7.93;;;1.10;;
51006;SDS011;37034;47.886;-3.904;2022-08-04T18:34:47;6.57;;;1.40;;
51006;SDS011;37034;47.886;-3.904;2022-08-04T18:39:39;4.10;;;1.10;;
51006;SDS011;37034;47.886;-3.904;2022-08-04T18:42:05;4.18;;;1.00;;
51006;SDS011;37034;47.886;-3.904;2022-08-04T18:44:31;6.40;;;1.27;;
51006;SDS011;37034;47.886;-3.904;2022-08-04T18:46:57;5.78;;;1.20;;
51006;SDS011;37034;47.886;-3.904;2022-08-04T18:49:24;9.07;;;1.55;;
51006;SDS011;37034;47.886;-3.904;2022-08-04T18:51:53;7.53;;;1.70;;
51006;SDS011;37034;47.886;-3.904;2022-08-04T18:54:19;7.05;;;1.40;;
51006;SDS011;37034;47.886;-3.904;2022-08-04T18:56:46;4.88;;;1.23;;
51006;SDS011;37034;47.886;-3.904;2022-08-04T18:59:14;6.03;;;1.00;;
51006;SDS011;37034;47.886;-3.904;2022-08-04T19:01:39;6.07;;;1.17;;
51006;SDS011;37034;47.886;-3.904;2022-08-04T19:04:05;10.68;;;1.25;;
51006;SDS011;37034;47.886;-3.904;2022-08-04T19:06:31;11.75;;;1.63;;
51006;SDS011;37034;47.886;-3.904;2022-08-04T19:08:59;5.47;;;1.33;;
51006;SDS011;37034;47.886;-3.904;2022-08-04T19:11:25;5.07;;;1.30;;
51006;SDS011;37034;47.886;-3.904;2022-08-04T19:13:51;5.70;;;1.30;;
51006;SDS011;37034;47.886;-3.904;2022-08-04T19:16:16;7.22;;;1.00;;
51006;SDS011;37034;47.886;-3.904;2022-08-04T19:18:42;6.00;;;1.20;;
51006;SDS011;37034;47.886;-3.904;2022-08-04T19:21:08;6.30;;;1.25;;
51006;SDS011;37034;47.886;-3.904;2022-08-04T19:23:34;6.90;;;1.60;;
51006;SDS011;37034;47.886;-3.904;2022-08-04T19:26:00;7.63;;;1.27;;
51006;SDS011;37034;47.886;-3.904;2022-08-04T19:28:26;15.10;;;1.40;;
51006;SDS011;37034;47.886;-3.904;2022-08-04T19:30:53;9.38;;;1.65;;
51006;SDS011;37034;47.886;-3.904;2022-08-04T19:33:20;8.43;;;1.48;;
51006;SDS011;37034;47.886;-3.904;2022-08-04T19:35:46;11.15;;;2.05;;
51006;SDS011;37034;47.886;-3.904;2022-08-04T19:38:12;8.05;;;1.13;;
51006;SDS011;37034;47.886;-3.904;2022-08-04T19:40:38;7.70;;;1.08;;
51006;SDS011;37034;47.886;-3.904;2022-08-04T19:43:04;8.48;;;1.27;;
51006;SDS011;37034;47.886;-3.904;2022-08-04T19:45:31;8.73;;;1.20;;
51006;SDS011;37034;47.886;-3.904;2022-08-04T19:47:57;7.30;;;1.38;;
51006;SDS011;37034;47.886;-3.904;2022-08-04T19:50:23;11.68;;;1.40;;
51006;SDS011;37034;47.886;-3.904;2022-08-04T19:55:16;8.07;;;1.13;;
51006;SDS011;37034;47.886;-3.904;2022-08-04T19:57:41;6.43;;;1.02;;
51006;SDS011;37034;47.886;-3.904;2022-08-04T20:00:10;9.00;;;1.23;;
51006;SDS011;37034;47.886;-3.904;2022-08-04T20:02:42;6.38;;;1.17;;
51006;SDS011;37034;47.886;-3.904;2022-08-04T20:05:09;14.30;;;1.92;;
51006;SDS011;37034;47.886;-3.904;2022-08-04T20:10:01;4.57;;;0.80;;
51006;SDS011;37034;47.886;-3.904;2022-08-04T20:12:28;9.73;;;0.90;;
51006;SDS011;37034;47.886;-3.904;2022-08-04T20:14:54;6.95;;;0.90;;
51006;SDS011;37034;47.886;-3.904;2022-08-04T20:17:20;5.20;;;0.98;;
51006;SDS011;37034;47.886;-3.904;2022-08-04T20:19:46;6.25;;;1.00;;
51006;SDS011;37034;47.886;-3.904;2022-08-04T20:22:11;9.32;;;1.10;;
51006;SDS011;37034;47.886;-3.904;2022-08-04T20:24:39;7.22;;;1.05;;
51006;SDS011;37034;47.886;-3.904;2022-08-04T20:27:05;5.53;;;0.93;;
51006;SDS011;37034;47.886;-3.904;2022-08-04T20:29:31;6.13;;;1.00;;
51006;SDS011;37034;47.886;-3.904;2022-08-04T20:31:57;7.05;;;0.93;;
51006;SDS011;37034;47.886;-3.904;2022-08-04T20:34:23;8.15;;;1.05;;
51006;SDS011;37034;47.886;-3.904;2022-08-04T20:36:49;8.75;;;1.08;;